Share

Talkeetna, AK

Talkeetna (PATK) Elev 358 ft | 62.32 °N, 150.09 °W | Change Station

Current weather conditions updated 27 minutes ago

Overcast
Overcast
41 °F
Feels Like 41 °F
N
0
Wind Variable Wind from North
Sunrise 6:28 AM
Sunset 9:31 PM
Moon Waning Gibbous

Tomorrow is forecast to be Cooler than today. A few morning showers.

Pressure 29.34 in
Visibility 10.0 miles
Clouds Overcast 8500 ft
Dew Point 26 °F
Humidity 55%
Rainfall 0.00 in
Snow Depth 19 in
UV 0 out of 16
Pollen Not available.
Air Quality Not available.
Flu Activity Sporadic
METAR PATK 180553Z 00000KT 10SM OVC085 05/M03 A2933 RMK AO2 SLP935 T00501033 10106 20050 53006

More Conditions Fewer Conditions

Pressure 29.34 in
Visibility 10.0 miles
Clouds Overcast 8500 ft
Dew Point 26 °F
Humidity 55%
Rainfall 0.00 in
Snow Depth 19 in
UV 0 out of 16
Pollen Not available.
Air Quality Not available.
Flu Activity Sporadic
METAR PATK 180553Z 00000KT 10SM OVC085 05/M03 A2933 RMK AO2 SLP935 T00501033 10106 20050 53006

More Conditions Fewer Conditions

10-Day Forecast

Almanac

Astronomy

Apr. 17, 2014 Rise Set
Actual Time 6:28 AM AKDT 9:31 PM AKDT
Civil Twilight 5:36 AM AKDT 10:23 PM AKDT
Nautical Twilight 4:24 AM AKDT 11:37 PM AKDT
Astronomical Twilight 2:31 AM AKDT 1:26 AM AKDT
Moon No Moon Rise 7:32 AM AKDT (4/17)
Length of Visible Light 16h 46m
Length of Day
15h 03m
Tomorrow will be 5m 59s longer.
Waning Gibbous, 90% of the Moon is Illuminated
Apr 18
Waning Gibbous
Apr 22
Last Quarter
Apr 29
New
May 6
First Quarter
May 14
Full

Yesterday's Extremes

State Highs State Lows

Community

  • SUNRISE THROUGH THE TREES.
    SUNRISE THROUGH THE TREES.
  • Dog Wood Blossoms
    Dog Wood Blossoms
  • Morning Light
    Morning Light
  • New Day
    New Day
  • Lake Michigan Sunrise
    Lake Michigan Sunrise

WunderPhotos

Upload Photos

1,702,276 photos uploaded!

WunderBlogs® & News

Nearby

Snow Depth

Station Depth Elevation
Susitna Valley High 19 in 375 ft
Point Mackenzie 11 in 200 ft
Indian Pass 48 in 2300 ft
Turnagain Pass 58 in 1880 ft
Moraine 10 in 2100 ft

Coastal Water Temperatures

Place Temperature
No Stations Reporting

Earthquake Activity

City Distance Mag. Time & Date
No recent earthquake activity has been reported nearby.
Minimum magnitude displayed is 2.5.

Nearby Weather Stations

Station Location Temp. Windchill Dew Point Humidity Wind Precip. Elev Updated Type
AKDOT Parks Highway @ Talkeetna Road MP , Talkeetna, AK 48 °F 48 °F 21 °F 33% ENE  at  3 mph 0.00 in / hr 393 ft 8:20 PM AKDT MADIS
HADS KASHWITNA R NR WILLOW AK , Willow, AK 44 °F 44 °F - - North  at  - 0.00 in / hr 196 ft 9:00 PM AKDT MADIS

Show More Stations Show Fewer Stations

What do you think?

We're not finished. Please let us know what you like, what you don't like, and what you are still missing.